createdAt,value
2024-02-29T00:01:50.866Z,35.63
2024-02-29T00:04:19.470Z,34.03
2024-02-29T00:06:46.658Z,36.13
2024-02-29T00:09:13.748Z,34.00
2024-02-29T00:11:40.804Z,35.90
2024-02-29T00:14:07.771Z,35.15
2024-02-29T00:16:34.812Z,33.65
2024-02-29T00:19:02.141Z,36.72
2024-02-29T00:21:30.798Z,33.38
2024-02-29T00:23:58.504Z,35.20
2024-02-29T00:26:25.673Z,34.90
2024-02-29T00:28:53.033Z,34.22
2024-02-29T00:31:20.108Z,35.88
2024-02-29T00:33:47.388Z,32.42
2024-02-29T00:36:14.628Z,36.25
2024-02-29T00:38:43.106Z,37.35
2024-02-29T00:41:10.212Z,36.05
2024-02-29T00:43:37.410Z,34.47
2024-02-29T00:46:05.394Z,35.80
2024-02-29T00:48:32.382Z,34.88
2024-02-29T00:50:59.375Z,34.33
2024-02-29T00:53:26.502Z,33.00
2024-02-29T00:55:54.934Z,33.20
2024-02-29T00:58:22.234Z,36.83
2024-02-29T01:00:49.762Z,32.45
2024-02-29T01:03:17.056Z,33.00
2024-02-29T01:05:45.838Z,36.90
2024-02-29T01:08:12.785Z,32.90
2024-02-29T01:10:40.016Z,33.10
2024-02-29T01:13:08.631Z,33.75
2024-02-29T01:15:35.898Z,33.55
2024-02-29T01:18:03.193Z,35.33
2024-02-29T01:20:30.248Z,34.95
2024-02-29T01:22:57.151Z,33.67
2024-02-29T01:25:24.012Z,35.58
2024-02-29T01:27:51.490Z,37.65
2024-02-29T01:30:20.865Z,35.40
2024-02-29T01:32:48.078Z,37.13
2024-02-29T01:35:15.354Z,37.05
2024-02-29T01:37:42.859Z,35.20
2024-02-29T01:40:10.368Z,35.50
2024-02-29T01:42:41.084Z,34.47
2024-02-29T01:45:09.025Z,35.80
2024-02-29T01:47:37.679Z,35.90
2024-02-29T01:50:08.271Z,37.03
2024-02-29T01:52:39.509Z,34.95
2024-02-29T01:55:07.481Z,36.90
2024-02-29T01:57:35.033Z,34.35
2024-02-29T02:00:03.241Z,32.22
2024-02-29T02:02:30.494Z,34.28
2024-02-29T02:04:58.933Z,37.60
2024-02-29T02:07:26.156Z,31.67
2024-02-29T02:09:53.274Z,32.95
2024-02-29T02:12:20.252Z,32.85
2024-02-29T02:14:47.127Z,34.60
2024-02-29T02:17:13.970Z,34.25
2024-02-29T02:19:42.451Z,31.90
2024-02-29T02:22:10.946Z,34.63
2024-02-29T02:24:38.114Z,34.67
2024-02-29T02:27:05.004Z,33.70
2024-02-29T02:29:31.962Z,33.45
2024-02-29T02:31:58.819Z,35.85
2024-02-29T02:34:25.633Z,33.80
2024-02-29T02:36:52.568Z,35.63
2024-02-29T02:39:20.779Z,35.80
2024-02-29T02:41:47.648Z,32.03
2024-02-29T02:44:14.541Z,36.20
2024-02-29T02:46:41.378Z,34.45
2024-02-29T02:49:08.260Z,33.92
2024-02-29T02:51:35.174Z,33.55
2024-02-29T02:54:02.103Z,34.38
2024-02-29T02:56:30.326Z,33.63
2024-02-29T02:58:57.186Z,37.65
2024-02-29T03:01:23.993Z,33.67
2024-02-29T03:03:50.904Z,34.33
2024-02-29T03:06:17.862Z,36.60
2024-02-29T03:08:44.749Z,32.38
2024-02-29T03:11:11.677Z,38.80
2024-02-29T03:13:39.953Z,30.90
2024-02-29T03:16:06.912Z,33.13
2024-02-29T03:18:33.794Z,35.45
2024-02-29T03:21:00.678Z,34.53
2024-02-29T03:23:27.491Z,33.58
2024-02-29T03:25:54.314Z,36.33
2024-02-29T03:28:21.188Z,34.33
2024-02-29T03:30:49.444Z,35.53
2024-02-29T03:33:16.386Z,35.03
2024-02-29T03:35:43.297Z,36.60
2024-02-29T03:38:10.147Z,34.63
2024-02-29T03:40:36.968Z,32.70
2024-02-29T03:43:04.131Z,38.65
2024-02-29T03:45:30.996Z,32.80
2024-02-29T03:47:59.307Z,35.72
2024-02-29T03:50:26.261Z,36.08
2024-02-29T03:52:53.242Z,34.13
2024-02-29T03:55:20.105Z,32.15
2024-02-29T03:57:47.006Z,33.25
2024-02-29T04:00:14.706Z,33.47
2024-02-29T04:02:41.727Z,35.17
2024-02-29T04:05:10.276Z,36.28
2024-02-29T04:07:37.666Z,36.53
2024-02-29T04:10:05.210Z,34.13
2024-02-29T04:12:32.194Z,38.75
2024-02-29T04:14:59.199Z,33.83
2024-02-29T04:17:26.880Z,36.85
2024-02-29T04:19:53.845Z,38.60
2024-02-29T04:22:22.107Z,35.67
2024-02-29T04:24:49.136Z,34.28
2024-02-29T04:27:16.077Z,35.38
2024-02-29T04:29:45.735Z,33.28
2024-02-29T04:32:12.709Z,35.15
2024-02-29T04:34:39.563Z,35.15
2024-02-29T04:37:06.458Z,34.10
2024-02-29T04:39:34.873Z,35.50
2024-02-29T04:42:01.780Z,32.50
2024-02-29T04:44:28.672Z,32.35
2024-02-29T04:46:55.535Z,34.80
2024-02-29T04:49:22.451Z,34.40
2024-02-29T04:51:49.389Z,37.63
2024-02-29T04:54:16.233Z,35.47
2024-02-29T04:56:44.489Z,36.08
2024-02-29T04:59:11.428Z,36.75
2024-02-29T05:01:38.664Z,37.78
2024-02-29T05:04:05.909Z,36.13
2024-02-29T05:06:32.969Z,36.17
2024-02-29T05:09:00.200Z,35.22
2024-02-29T05:11:27.193Z,34.20
2024-02-29T05:13:55.647Z,33.55
2024-02-29T05:16:22.573Z,35.55
2024-02-29T05:18:49.498Z,34.00
2024-02-29T05:21:16.420Z,37.60
2024-02-29T05:23:43.341Z,43.67
2024-02-29T05:26:11.679Z,35.80
2024-02-29T05:28:38.551Z,40.03
2024-02-29T05:31:06.849Z,34.90
2024-02-29T05:33:33.759Z,35.95
2024-02-29T05:36:00.683Z,35.10
2024-02-29T05:38:27.553Z,36.95
2024-02-29T05:40:54.517Z,35.53
2024-02-29T05:43:21.549Z,35.13
2024-02-29T05:45:48.492Z,39.10
2024-02-29T05:48:16.874Z,34.83
2024-02-29T05:50:43.740Z,38.33
2024-02-29T05:53:10.597Z,34.15
2024-02-29T05:55:37.513Z,36.05
2024-02-29T05:58:04.936Z,36.47
2024-02-29T06:00:31.949Z,37.17
2024-02-29T06:02:58.814Z,41.45
2024-02-29T06:05:27.133Z,33.95
2024-02-29T06:07:54.095Z,38.38
2024-02-29T06:10:21.044Z,39.00
2024-02-29T06:12:48.014Z,41.03
2024-02-29T06:15:15.083Z,39.10
2024-02-29T06:17:42.041Z,44.20
2024-02-29T06:20:10.226Z,41.85
2024-02-29T06:22:39.830Z,39.85
2024-02-29T06:25:07.594Z,42.45
2024-02-29T06:27:34.605Z,38.55
2024-02-29T06:30:01.673Z,40.53
2024-02-29T06:32:28.582Z,39.38
2024-02-29T06:34:55.438Z,40.17
2024-02-29T06:37:22.360Z,42.38
2024-02-29T06:39:50.892Z,39.55
2024-02-29T06:42:17.790Z,41.97
2024-02-29T06:44:44.724Z,40.55
2024-02-29T06:47:11.539Z,42.22
2024-02-29T06:49:38.586Z,45.13
2024-02-29T06:52:05.851Z,44.85
2024-02-29T06:54:32.760Z,43.95
2024-02-29T06:57:01.023Z,45.03
2024-02-29T06:59:27.913Z,45.75
2024-02-29T07:01:55.030Z,46.80
2024-02-29T07:04:21.990Z,46.17
2024-02-29T07:06:48.959Z,47.28
2024-02-29T07:09:15.953Z,43.08
2024-02-29T07:11:42.996Z,41.95
2024-02-29T07:14:11.270Z,43.38
2024-02-29T07:16:38.196Z,40.85
2024-02-29T07:19:05.680Z,51.45
2024-02-29T07:21:32.587Z,45.40
2024-02-29T07:23:59.498Z,44.47
2024-02-29T07:26:26.507Z,43.25
2024-02-29T07:28:53.630Z,41.47
2024-02-29T07:31:21.923Z,44.75
2024-02-29T07:33:48.881Z,42.85
2024-02-29T07:36:15.862Z,47.25
2024-02-29T07:38:42.743Z,45.13
2024-02-29T07:41:09.751Z,43.97
2024-02-29T07:43:36.702Z,41.75
2024-02-29T07:46:04.164Z,47.50
2024-02-29T07:48:32.754Z,44.17
2024-02-29T07:50:59.665Z,43.28
2024-02-29T07:53:26.575Z,42.47
2024-02-29T07:55:53.445Z,43.00
2024-02-29T07:58:20.572Z,41.45
2024-02-29T08:00:47.641Z,42.20
2024-02-29T08:03:14.596Z,43.50
2024-02-29T08:05:42.871Z,43.33
2024-02-29T08:08:09.697Z,39.40
2024-02-29T08:10:36.670Z,38.88
2024-02-29T08:13:03.753Z,41.53
2024-02-29T08:15:30.731Z,39.13
2024-02-29T08:17:57.855Z,38.50
2024-02-29T08:20:25.269Z,36.28
2024-02-29T08:22:53.677Z,40.40
2024-02-29T08:25:20.819Z,34.22
2024-02-29T08:27:47.936Z,37.95
2024-02-29T08:30:15.681Z,37.70
2024-02-29T08:32:42.763Z,38.95
2024-02-29T08:35:10.846Z,39.03
2024-02-29T08:37:39.409Z,40.78
2024-02-29T08:40:09.337Z,39.65
2024-02-29T08:42:36.654Z,41.70
2024-02-29T08:45:04.473Z,38.53
2024-02-29T08:47:31.498Z,43.60
2024-02-29T08:49:58.519Z,47.30
2024-02-29T08:52:26.037Z,45.72
2024-02-29T08:54:53.146Z,40.47
2024-02-29T08:57:21.547Z,36.30
2024-02-29T08:59:48.545Z,39.05
2024-02-29T09:02:15.801Z,40.55
2024-02-29T09:04:43.212Z,37.53
2024-02-29T09:07:10.558Z,38.35
2024-02-29T09:09:38.167Z,36.90
2024-02-29T09:12:05.554Z,39.75
2024-02-29T09:14:34.055Z,38.75
2024-02-29T09:17:01.223Z,37.10
2024-02-29T09:19:28.496Z,36.17
2024-02-29T09:21:55.720Z,33.58
2024-02-29T09:24:22.634Z,34.75
2024-02-29T09:26:49.709Z,36.05
2024-02-29T09:29:16.942Z,36.05
2024-02-29T09:31:45.977Z,33.22
2024-02-29T09:34:13.091Z,31.73
2024-02-29T09:36:40.055Z,35.03
2024-02-29T09:39:07.311Z,26.60
2024-02-29T09:41:58.378Z,29.15
2024-02-29T09:44:21.727Z,29.65
2024-02-29T09:46:51.605Z,30.02
2024-02-29T09:49:19.357Z,28.10
2024-02-29T09:51:47.453Z,24.25
2024-02-29T09:54:17.108Z,22.90
2024-02-29T09:56:45.452Z,21.20
2024-02-29T09:59:15.553Z,23.85
2024-02-29T10:01:44.867Z,25.15
2024-02-29T10:04:13.726Z,23.30
2024-02-29T10:06:41.056Z,24.88
2024-02-29T10:09:08.391Z,21.42
2024-02-29T10:11:41.038Z,20.65
2024-02-29T10:14:19.950Z,22.33
2024-02-29T10:16:50.438Z,20.70
2024-02-29T10:19:19.189Z,19.08
2024-02-29T10:21:46.599Z,20.98
2024-02-29T10:24:13.798Z,20.60
2024-02-29T10:26:41.344Z,24.15
2024-02-29T10:29:10.689Z,27.65
2024-02-29T10:31:39.666Z,27.38
2024-02-29T10:34:10.865Z,24.48
2024-02-29T10:36:39.691Z,22.20
2024-02-29T10:39:06.862Z,23.38
2024-02-29T10:41:34.278Z,22.30
2024-02-29T10:44:04.290Z,20.50
2024-02-29T10:46:33.170Z,22.38
2024-02-29T10:49:03.514Z,21.67
2024-02-29T10:51:41.642Z,19.50
2024-02-29T10:54:20.519Z,19.30
2024-02-29T10:56:49.011Z,22.83
2024-02-29T10:59:18.130Z,22.00
2024-02-29T11:01:46.658Z,21.83
2024-02-29T11:04:14.519Z,21.55
2024-02-29T11:06:43.137Z,22.67
2024-02-29T11:09:13.292Z,22.70
2024-02-29T11:11:40.538Z,24.55
2024-02-29T11:14:11.988Z,18.95
2024-02-29T11:16:39.953Z,21.50
2024-02-29T11:19:07.349Z,21.77
2024-02-29T11:21:34.774Z,18.80
2024-02-29T11:24:02.238Z,19.77
2024-02-29T11:26:31.249Z,20.25
2024-02-29T11:28:58.818Z,19.38
2024-02-29T11:31:26.754Z,18.80
2024-02-29T11:33:55.253Z,18.50
2024-02-29T11:36:24.251Z,20.23
2024-02-29T11:38:51.431Z,19.20
2024-02-29T11:41:20.141Z,20.23
2024-02-29T11:43:48.851Z,21.55
2024-02-29T11:46:16.124Z,21.98
2024-02-29T11:48:43.220Z,18.92
2024-02-29T11:51:10.495Z,23.38
2024-02-29T11:53:39.201Z,21.35
2024-02-29T11:56:14.723Z,19.27
2024-02-29T11:58:43.557Z,21.05
2024-02-29T12:01:12.296Z,24.52
2024-02-29T12:03:39.673Z,20.33
2024-02-29T12:06:07.598Z,19.25
2024-02-29T12:08:34.860Z,19.75
2024-02-29T12:11:02.988Z,17.13
2024-02-29T12:13:31.164Z,18.55
2024-02-29T12:15:59.331Z,19.45
2024-02-29T12:18:27.843Z,26.55
2024-02-29T12:20:54.839Z,19.48
2024-02-29T12:23:22.225Z,19.20
2024-02-29T12:25:49.173Z,24.10
2024-02-29T12:28:16.474Z,19.55
2024-02-29T12:30:46.660Z,20.52
2024-02-29T12:33:13.811Z,21.02
2024-02-29T12:35:44.206Z,20.50
2024-02-29T12:38:15.571Z,17.55
2024-02-29T12:40:42.579Z,26.40
2024-02-29T12:43:14.116Z,21.08
2024-02-29T12:45:42.487Z,21.40
2024-02-29T12:48:09.591Z,22.48
2024-02-29T12:50:36.847Z,22.15
2024-02-29T12:53:05.745Z,22.83
2024-02-29T12:55:32.909Z,21.95
2024-02-29T12:58:00.427Z,19.77
2024-02-29T13:00:27.406Z,22.20
2024-02-29T13:02:55.705Z,21.88
2024-02-29T13:05:22.898Z,19.10
2024-02-29T13:07:49.846Z,19.02
2024-02-29T13:10:18.562Z,23.05
2024-02-29T13:12:51.749Z,22.58
2024-02-29T13:15:24.142Z,21.95
2024-02-29T13:17:51.627Z,21.83
2024-02-29T13:20:18.872Z,23.33
2024-02-29T13:22:46.044Z,24.13
2024-02-29T13:25:14.142Z,23.90
2024-02-29T13:27:43.384Z,20.23
2024-02-29T13:30:11.110Z,22.58
2024-02-29T13:32:38.385Z,23.48
2024-02-29T13:35:06.318Z,21.42
2024-02-29T13:37:33.513Z,21.67
2024-02-29T13:40:00.854Z,21.65
2024-02-29T13:42:28.077Z,23.55
2024-02-29T13:44:56.445Z,22.70
2024-02-29T13:47:23.973Z,25.67
2024-02-29T13:49:51.112Z,24.08
2024-02-29T13:52:19.086Z,28.88
2024-02-29T13:54:47.016Z,28.90
2024-02-29T13:57:14.774Z,25.77
2024-02-29T13:59:43.549Z,28.98
2024-02-29T14:02:12.266Z,30.10
2024-02-29T14:04:39.430Z,30.13
2024-02-29T14:07:06.776Z,27.08
2024-02-29T14:09:33.716Z,25.20
2024-02-29T14:12:00.656Z,27.08
2024-02-29T14:14:27.664Z,26.35
2024-02-29T14:16:55.001Z,27.45
2024-02-29T14:19:23.771Z,25.98
2024-02-29T14:21:51.090Z,29.48
2024-02-29T14:24:18.038Z,29.88
2024-02-29T14:26:45.165Z,31.27
2024-02-29T14:29:14.335Z,32.40
2024-02-29T14:31:42.603Z,26.67
2024-02-29T14:34:09.580Z,31.00
2024-02-29T14:36:39.726Z,33.42
2024-02-29T14:39:06.863Z,30.50
2024-02-29T14:41:34.371Z,29.90
2024-02-29T14:44:01.520Z,28.75
2024-02-29T14:46:29.005Z,28.00
2024-02-29T14:48:56.250Z,28.90
2024-02-29T14:51:23.496Z,28.73
2024-02-29T14:53:52.442Z,29.17
2024-02-29T14:56:19.732Z,31.98
2024-02-29T14:58:47.244Z,30.15
2024-02-29T15:01:14.596Z,35.70
2024-02-29T15:03:42.193Z,31.15
2024-02-29T15:06:09.274Z,32.50
2024-02-29T15:08:36.556Z,31.48
2024-02-29T15:11:05.603Z,31.17
2024-02-29T15:13:32.654Z,30.50
2024-02-29T15:16:00.046Z,30.27
2024-02-29T15:18:27.224Z,32.97
2024-02-29T15:20:54.445Z,32.15
2024-02-29T15:23:21.769Z,33.22
2024-02-29T15:25:49.247Z,29.08
2024-02-29T15:28:18.107Z,34.47
2024-02-29T15:30:45.479Z,30.95
2024-02-29T15:33:12.888Z,33.85
2024-02-29T15:35:40.340Z,37.05
2024-02-29T15:38:07.310Z,35.42
2024-02-29T15:40:34.360Z,31.75
2024-02-29T15:43:01.371Z,35.50
2024-02-29T15:45:30.090Z,34.38
2024-02-29T15:47:57.351Z,30.55
2024-02-29T15:50:25.021Z,38.22
2024-02-29T15:52:52.060Z,32.13
2024-02-29T15:55:19.208Z,30.50
2024-02-29T15:57:46.628Z,32.83
2024-02-29T16:00:15.071Z,30.58
2024-02-29T16:02:44.041Z,31.95
2024-02-29T16:05:11.281Z,30.05
2024-02-29T16:07:38.444Z,31.35
2024-02-29T16:10:06.287Z,29.67
2024-02-29T16:12:33.494Z,28.15
2024-02-29T16:15:00.846Z,30.85
2024-02-29T16:17:28.051Z,32.47
2024-02-29T16:19:56.942Z,31.45
2024-02-29T16:22:24.155Z,32.05
2024-02-29T16:24:51.182Z,33.28
2024-02-29T16:27:18.429Z,28.45
2024-02-29T16:29:45.629Z,30.95
2024-02-29T16:32:12.672Z,30.17
2024-02-29T16:34:40.017Z,35.40
2024-02-29T16:37:08.950Z,33.75
2024-02-29T16:39:36.126Z,32.25
2024-02-29T16:42:03.434Z,30.98
2024-02-29T16:44:30.894Z,34.33
2024-02-29T16:46:58.065Z,31.50
2024-02-29T16:49:25.489Z,30.65
2024-02-29T16:51:52.601Z,38.13
2024-02-29T16:54:23.929Z,32.50
2024-02-29T16:56:50.904Z,28.17
2024-02-29T16:59:18.135Z,34.95
2024-02-29T17:01:46.769Z,35.90
2024-02-29T17:04:14.084Z,32.40
2024-02-29T17:06:41.423Z,37.25
2024-02-29T17:09:08.534Z,33.42
2024-02-29T17:11:37.337Z,33.42
2024-02-29T17:14:04.605Z,32.88
2024-02-29T17:16:31.629Z,34.75
2024-02-29T17:18:59.030Z,35.22
2024-02-29T17:21:27.518Z,36.05
2024-02-29T17:23:54.515Z,30.15
2024-02-29T17:26:21.928Z,35.38
2024-02-29T17:28:50.302Z,33.97
2024-02-29T17:31:17.381Z,34.30
2024-02-29T17:33:44.577Z,36.42
2024-02-29T17:36:11.602Z,36.63
2024-02-29T17:38:38.858Z,35.00
2024-02-29T17:41:06.077Z,31.58
2024-02-29T17:43:33.184Z,37.10
2024-02-29T17:46:02.098Z,37.35
2024-02-29T17:48:29.565Z,31.15
2024-02-29T17:50:56.644Z,37.95
2024-02-29T17:53:23.819Z,33.70
2024-02-29T17:55:51.132Z,36.28
2024-02-29T17:58:18.360Z,35.40
2024-02-29T18:00:45.609Z,37.38
2024-02-29T18:03:14.456Z,37.75
2024-02-29T18:05:41.659Z,31.52
2024-02-29T18:08:08.737Z,30.75
2024-02-29T18:10:35.940Z,28.95
2024-02-29T18:13:03.637Z,32.88
2024-02-29T18:15:30.605Z,36.20
2024-02-29T18:17:57.845Z,34.70
2024-02-29T18:20:26.298Z,37.88
2024-02-29T18:22:53.349Z,37.95
2024-02-29T18:25:20.863Z,30.75
2024-02-29T18:27:48.258Z,37.13
2024-02-29T18:30:15.909Z,36.58
2024-02-29T18:32:43.321Z,35.15
2024-02-29T18:35:10.924Z,35.92
2024-02-29T18:37:39.770Z,32.17
2024-02-29T18:40:08.562Z,40.28
2024-02-29T18:42:35.493Z,40.03
2024-02-29T18:45:02.768Z,35.25
2024-02-29T18:47:30.413Z,34.55
2024-02-29T18:49:57.771Z,39.95
2024-02-29T18:52:25.163Z,37.17
2024-02-29T18:54:54.061Z,41.92
2024-02-29T18:57:21.278Z,35.42
2024-02-29T18:59:48.358Z,37.75
2024-02-29T19:02:15.566Z,39.67
2024-02-29T19:04:42.828Z,37.30
2024-02-29T19:07:09.953Z,41.65
2024-02-29T19:09:36.950Z,35.35
2024-02-29T19:12:06.430Z,37.30
2024-02-29T19:14:33.461Z,37.03
2024-02-29T19:17:00.471Z,39.03
2024-02-29T19:19:27.484Z,41.35
2024-02-29T19:21:54.431Z,40.55
2024-02-29T19:24:21.776Z,38.30
2024-02-29T19:26:48.782Z,43.13
2024-02-29T19:29:17.179Z,43.35
2024-02-29T19:31:44.140Z,39.33
2024-02-29T19:34:11.112Z,37.80
2024-02-29T19:36:38.476Z,39.00
2024-02-29T19:39:05.452Z,40.13
2024-02-29T19:41:32.354Z,43.60
2024-02-29T19:43:59.427Z,38.63
2024-02-29T19:46:28.246Z,41.97
2024-02-29T19:48:55.529Z,39.25
2024-02-29T19:51:22.524Z,40.75
2024-02-29T19:53:49.683Z,41.60
2024-02-29T19:56:18.229Z,41.83
2024-02-29T19:58:45.570Z,45.78
2024-02-29T20:01:12.913Z,41.53
2024-02-29T20:03:41.420Z,40.03
2024-02-29T20:06:08.488Z,40.95
2024-02-29T20:08:35.461Z,42.17
2024-02-29T20:11:03.414Z,39.45
2024-02-29T20:13:31.185Z,46.25
2024-02-29T20:15:58.347Z,45.85
2024-02-29T20:18:25.361Z,43.22
2024-02-29T20:20:53.814Z,43.63
2024-02-29T20:23:20.896Z,41.70
2024-02-29T20:25:47.852Z,40.95
2024-02-29T20:28:15.144Z,42.53
2024-02-29T20:30:42.108Z,44.60
2024-02-29T20:33:09.559Z,40.50
2024-02-29T20:35:36.674Z,43.55
2024-02-29T20:38:05.034Z,41.72
2024-02-29T20:40:32.444Z,42.80
2024-02-29T20:42:59.737Z,45.55
2024-02-29T20:45:26.982Z,45.33
2024-02-29T20:47:54.242Z,40.63
2024-02-29T20:50:21.394Z,42.58
2024-02-29T20:52:48.439Z,44.50
2024-02-29T20:55:17.100Z,48.33
2024-02-29T20:57:44.338Z,43.40
2024-02-29T21:00:12.533Z,47.75
2024-02-29T21:02:39.744Z,55.55
2024-02-29T21:05:07.267Z,45.38
2024-02-29T21:07:34.807Z,47.30
2024-02-29T21:10:03.044Z,43.00
2024-02-29T21:12:31.498Z,42.40
2024-02-29T21:14:58.688Z,49.78
2024-02-29T21:17:25.868Z,48.13
2024-02-29T21:19:52.841Z,40.80
2024-02-29T21:22:20.034Z,41.63
2024-02-29T21:24:47.108Z,40.92
2024-02-29T21:27:14.385Z,47.20
2024-02-29T21:29:45.036Z,39.90
2024-02-29T21:32:12.412Z,43.95
2024-02-29T21:34:42.180Z,40.45
2024-02-29T21:37:09.354Z,41.47
2024-02-29T21:39:44.120Z,41.92
2024-02-29T21:42:12.500Z,39.88
2024-02-29T21:44:39.897Z,43.00
2024-02-29T21:47:08.676Z,37.72
2024-02-29T21:49:35.936Z,40.65
2024-02-29T21:52:03.553Z,45.10
2024-02-29T21:54:30.658Z,41.90
2024-02-29T21:56:57.632Z,42.83
2024-02-29T21:59:24.857Z,43.45
2024-02-29T22:01:51.910Z,46.85
2024-02-29T22:04:20.845Z,43.17
2024-02-29T22:06:47.894Z,40.65
2024-02-29T22:09:15.208Z,41.65
2024-02-29T22:11:44.539Z,42.03
2024-02-29T22:14:12.787Z,36.92
2024-02-29T22:16:41.797Z,38.03
2024-02-29T22:19:08.966Z,43.00
2024-02-29T22:21:37.496Z,38.38
2024-02-29T22:24:04.789Z,38.42
2024-02-29T22:26:31.985Z,41.72
2024-02-29T22:29:00.084Z,44.42
2024-02-29T22:31:29.236Z,42.03
2024-02-29T22:33:56.653Z,39.80
2024-02-29T22:36:23.953Z,37.97
2024-02-29T22:38:52.443Z,41.03
2024-02-29T22:41:19.364Z,41.38
2024-02-29T22:43:46.610Z,41.67
2024-02-29T22:46:13.530Z,42.45
2024-02-29T22:48:40.457Z,37.63
2024-02-29T22:51:07.619Z,39.03
2024-02-29T22:53:35.730Z,36.95
2024-02-29T22:56:04.826Z,40.35
2024-02-29T22:58:32.102Z,46.17
2024-02-29T23:00:59.361Z,38.08
2024-02-29T23:03:26.393Z,39.50
2024-02-29T23:05:53.361Z,38.08
2024-02-29T23:08:20.298Z,39.20
2024-02-29T23:10:47.739Z,40.85
2024-02-29T23:13:16.703Z,40.65
2024-02-29T23:15:43.746Z,33.25
2024-02-29T23:18:10.756Z,43.95
2024-02-29T23:20:37.686Z,36.92
2024-02-29T23:23:05.309Z,36.95
2024-02-29T23:25:32.657Z,39.88
2024-02-29T23:27:59.798Z,39.92
2024-02-29T23:30:28.095Z,40.42
2024-02-29T23:32:55.192Z,45.60
2024-02-29T23:35:22.314Z,39.97
2024-02-29T23:37:49.366Z,41.10
2024-02-29T23:40:16.781Z,36.72
2024-02-29T23:42:44.309Z,36.85
2024-02-29T23:45:11.790Z,37.55
2024-02-29T23:47:40.378Z,39.30
2024-02-29T23:50:08.465Z,42.15
2024-02-29T23:52:35.896Z,40.45
2024-02-29T23:55:05.571Z,38.88
2024-02-29T23:57:32.838Z,38.33
2024-02-29T23:59:59.910Z,41.88
